Time;durP1;ratioP1;P1;durP2;ratioP2;P2;SDS_P1;SDS_P2;PMS_P1;PMS_P2;Temp;Humidity;BMP_temperature;BMP_pressure;BME280_temperature;BME280_humidity;BME280_pressure;Samples;Min_cycle;Max_cycle;Signal;HPM_P1;HPM_P2
2023/10/08 00:02:25;;;;;;;9.60;5.20;;;;;;;15.99;86.06;102202.94;5064981;28;20344;-82
2023/10/08 00:04:51;;;;;;;10.55;5.75;;;;;;;15.97;86.34;102210.16;5052131;28;20021;-82
2023/10/08 00:07:21;;;;;;;12.48;5.75;;;;;;;15.93;86.24;102216.66;5067665;28;20021;-82
2023/10/08 00:09:53;;;;;;;10.40;5.88;;;;;;;15.91;86.14;102222.09;5066912;28;20477;-82
2023/10/08 00:12:19;;;;;;;13.15;5.55;;;;;;;15.88;86.41;102224.13;5067611;28;20025;-82
2023/10/08 00:14:53;;;;;;;11.05;5.60;;;;;;;15.85;86.08;102216.41;5052059;28;20039;-81
2023/10/08 00:17:19;;;;;;;9.70;5.55;;;;;;;15.82;86.39;102216.63;5045866;28;22007;-82
2023/10/08 00:19:44;;;;;;;9.10;5.50;;;;;;;15.78;87.49;102215.16;5065639;28;20021;-82
2023/10/08 00:22:12;;;;;;;17.73;5.45;;;;;;;15.74;87.11;102216.34;5051192;28;20485;-82
2023/10/08 00:24:40;;;;;;;12.30;6.10;;;;;;;15.61;87.49;102225.22;5050141;28;20055;-81
2023/10/08 00:27:07;;;;;;;11.77;5.68;;;;;;;15.57;87.72;102221.03;5051143;28;20044;-82
2023/10/08 00:29:32;;;;;;;9.27;5.22;;;;;;;15.55;87.80;102222.97;5055997;28;20482;-82
2023/10/08 00:31:58;;;;;;;9.63;5.70;;;;;;;15.53;88.13;102226.69;5050881;28;20025;-82
2023/10/08 00:34:24;;;;;;;12.23;6.18;;;;;;;15.47;87.99;102227.97;5060762;28;20037;-82
2023/10/08 00:36:50;;;;;;;10.90;5.75;;;;;;;15.40;88.68;102233.84;5060545;28;20028;-82
2023/10/08 00:39:23;;;;;;;11.98;6.25;;;;;;;15.39;88.99;102230.34;5050570;28;20024;-82
2023/10/08 00:41:58;;;;;;;;;;;;;;;15.52;88.31;102230.31;5059066;28;20032;-81
2023/10/08 00:44:23;;;;;;;14.82;5.95;;;;;;;15.34;89.19;102228.03;5071324;28;19974;-82
2023/10/08 00:46:49;;;;;;;13.48;5.95;;;;;;;15.31;90.06;102240.66;5053876;28;20053;-82
2023/10/08 00:55:24;;;;;;;15.00;5.68;;;;;;;15.14;91.10;102248.97;5046450;28;20118;-82
2023/10/08 00:57:29;;;;;;;10.57;5.72;;;;;;;15.07;91.43;102245.06;5030900;28;20371;-81
2023/10/08 00:59:58;;;;;;;11.48;6.05;;;;;;;15.03;91.99;102244.41;5049865;28;20016;-81
2023/10/08 01:02:28;;;;;;;11.40;5.78;;;;;;;15.02;92.50;102248.88;5068899;28;20078;-81
2023/10/08 01:04:55;;;;;;;14.35;6.18;;;;;;;14.91;92.73;102240.00;5054233;28;20026;-82
2023/10/08 01:07:22;;;;;;;10.40;5.80;;;;;;;14.90;93.10;102240.94;5030592;28;20063;-81
2023/10/08 01:09:50;;;;;;;8.63;5.60;;;;;;;14.87;93.22;102238.50;5031505;28;20048;-81
2023/10/08 01:12:22;;;;;;;11.77;6.13;;;;;;;14.83;93.99;102227.28;5029830;28;20017;-81
2023/10/08 01:14:49;;;;;;;9.37;5.40;;;;;;;14.81;94.37;102223.00;5030305;28;20048;-82
2023/10/08 01:17:16;;;;;;;10.95;6.03;;;;;;;14.72;94.25;102213.91;5036519;28;20029;-81
2023/10/08 01:19:50;;;;;;;9.98;5.70;;;;;;;14.69;94.71;102225.56;5066786;28;20046;-81
2023/10/08 01:22:18;;;;;;;11.73;6.20;;;;;;;14.72;95.00;102235.09;5043072;28;20025;-81
2023/10/08 01:24:47;;;;;;;12.10;6.20;;;;;;;14.63;95.24;102227.81;5044122;28;20025;-81
2023/10/08 01:27:19;;;;;;;12.38;5.75;;;;;;;14.61;95.56;102227.91;5030350;28;20026;-81
2023/10/08 01:29:44;;;;;;;10.15;5.97;;;;;;;14.65;95.63;102218.78;5054225;28;20021;-81
2023/10/08 01:32:10;;;;;;;11.27;6.20;;;;;;;14.57;95.66;102209.69;5050692;28;20032;-81
2023/10/08 01:34:36;;;;;;;9.82;5.75;;;;;;;14.58;95.95;102206.09;5049050;28;20504;-81
2023/10/08 01:37:08;;;;;;;11.20;5.97;;;;;;;14.57;96.06;102207.03;5063339;28;20119;-81
2023/10/08 01:39:35;;;;;;;9.75;6.20;;;;;;;14.51;96.12;102205.66;5070651;28;20055;-81
2023/10/08 01:42:01;;;;;;;11.95;6.10;;;;;;;14.49;96.55;102204.06;5057418;28;20024;-81
2023/10/08 01:44:28;;;;;;;9.52;5.70;;;;;;;14.45;96.67;102205.25;5050205;28;20523;-81
2023/10/08 01:46:57;;;;;;;13.07;6.20;;;;;;;14.39;97.01;102206.44;5048648;28;20451;-81
2023/10/08 01:49:26;;;;;;;11.23;6.22;;;;;;;14.39;97.13;102206.44;5048305;28;20100;-81
2023/10/08 01:51:53;;;;;;;10.75;6.07;;;;;;;14.36;97.12;102210.16;5048534;28;20043;-81
2023/10/08 01:54:21;;;;;;;11.13;6.65;;;;;;;14.34;97.41;102217.34;5048095;28;20021;-81
2023/10/08 01:56:46;;;;;;;14.32;6.78;;;;;;;14.34;97.41;102214.72;5056903;28;20041;-80
2023/10/08 01:59:14;;;;;;;11.43;6.35;;;;;;;14.33;97.74;102228.91;5069776;28;20047;-80
2023/10/08 02:01:41;;;;;;;14.02;6.72;;;;;;;14.37;97.45;102222.44;5041014;28;20037;-81
2023/10/08 02:04:12;;;;;;;14.25;6.57;;;;;;;14.37;97.76;102245.44;5063524;28;20040;-81
2023/10/08 02:06:39;;;;;;;13.85;6.07;;;;;;;14.36;97.76;102244.56;5062935;28;20116;-81
2023/10/08 02:09:07;;;;;;;11.35;6.03;;;;;;;14.37;97.92;102237.47;5049213;28;20032;-81
2023/10/08 02:11:50;;;;;;;13.05;6.28;;;;;;;14.37;97.99;102251.56;5049081;28;20078;-81
2023/10/08 02:14:17;;;;;;;19.77;7.80;;;;;;;14.37;98.07;102240.97;5049699;28;20029;-81
2023/10/08 02:16:46;;;;;;;11.52;6.70;;;;;;;14.31;98.22;102235.25;5047301;28;20485;-81
2023/10/08 02:19:12;;;;;;;12.55;6.68;;;;;;;14.34;98.21;102240.34;5037592;28;20167;-81
2023/10/08 02:21:41;;;;;;;12.85;6.43;;;;;;;14.31;98.11;102230.81;5037781;28;20036;-81
2023/10/08 02:24:08;;;;;;;9.90;6.43;;;;;;;14.32;98.04;102229.84;5048157;28;20081;-81
2023/10/08 02:26:34;;;;;;;13.13;6.38;;;;;;;14.29;97.99;102230.06;5050403;28;20025;-81
2023/10/08 02:29:00;;;;;;;12.27;6.05;;;;;;;14.29;98.42;102237.16;5049829;28;20499;-81
2023/10/08 02:31:26;;;;;;;9.95;6.30;;;;;;;14.28;98.34;102233.66;5040444;28;20366;-80
2023/10/08 02:33:51;;;;;;;15.38;6.75;;;;;;;14.30;98.21;102229.09;5059314;28;20024;-82
2023/10/08 02:36:17;;;;;;;11.85;6.65;;;;;;;14.31;98.26;102240.53;5069832;28;20016;-80
2023/10/08 02:38:42;;;;;;;13.18;6.55;;;;;;;14.28;98.73;102236.31;5036087;28;20030;-80
2023/10/08 02:41:08;;;;;;;11.68;6.28;;;;;;;14.29;98.61;102240.66;5028532;28;20116;-80
2023/10/08 02:43:34;;;;;;;12.70;6.45;;;;;;;14.28;99.03;102236.31;5047239;28;20045;-80
2023/10/08 02:46:00;;;;;;;13.65;6.85;;;;;;;14.26;99.01;102243.50;5066113;28;20027;-80
2023/10/08 02:48:27;;;;;;;11.55;6.18;;;;;;;14.29;99.03;102253.88;5067343;28;20020;-80
2023/10/08 02:50:54;;;;;;;11.88;6.68;;;;;;;14.28;99.12;102257.50;5065575;28;20094;-80
2023/10/08 02:53:21;;;;;;;12.38;6.65;;;;;;;14.25;99.65;102251.56;5051151;28;20028;-80
2023/10/08 02:55:46;;;;;;;13.23;6.32;;;;;;;14.25;99.79;102252.41;5041256;28;20046;-81
2023/10/08 02:58:15;;;;;;;12.98;6.50;;;;;;;14.27;99.79;102249.66;5033973;28;20067;-81
2023/10/08 03:00:46;;;;;;;11.73;6.68;;;;;;;14.25;100.00;102257.69;5035543;28;20031;-81
2023/10/08 03:03:15;;;;;;;15.90;6.57;;;;;;;14.29;100.00;102248.59;5031889;28;20032;-81
2023/10/08 03:05:51;;;;;;;13.98;6.57;;;;;;;14.25;100.00;102252.41;5045279;28;20032;-81
2023/10/08 03:08:21;;;;;;;11.73;6.43;;;;;;;14.24;100.00;102255.16;5063401;28;20036;-81
2023/10/08 03:10:48;;;;;;;18.00;6.28;;;;;;;14.23;100.00;102254.31;5068053;28;20054;-81
2023/10/08 03:13:16;;;;;;;12.55;6.78;;;;;;;14.25;100.00;102256.84;5067064;28;20032;-80
2023/10/08 03:16:07;;;;;;;13.18;6.38;;;;;;;14.22;100.00;102252.59;5069892;28;20055;-80
2023/10/08 03:18:42;;;;;;;13.00;6.55;;;;;;;14.26;100.00;102263.84;5071577;28;20413;-81
2023/10/08 03:21:21;;;;;;;12.43;6.60;;;;;;;14.25;100.00;102268.28;5057390;28;20044;-81
2023/10/08 03:23:58;;;;;;;12.55;6.45;;;;;;;14.25;100.00;102268.28;5051440;28;20059;-81
2023/10/08 03:28:59;;;;;;;17.33;6.88;;;;;;;14.26;100.00;102275.28;5038336;28;20603;-81
2023/10/08 03:34:12;;;;;;;13.23;6.80;;;;;;;14.23;100.00;102269.34;5065153;28;20560;-81
2023/10/08 03:36:44;;;;;;;13.95;6.65;;;;;;;14.24;100.00;102269.25;5069828;28;20107;-81
2023/10/08 03:39:17;;;;;;;12.50;6.78;;;;;;;14.23;100.00;102270.19;5068867;28;20086;-81
2023/10/08 03:41:51;;;;;;;12.60;6.60;;;;;;;14.20;100.00;102267.75;5065598;28;20439;-81
2023/10/08 03:44:17;;;;;;;13.77;6.45;;;;;;;14.17;100.00;102278.53;5049019;28;20040;-81
2023/10/08 03:46:43;;;;;;;14.73;7.15;;;;;;;14.17;100.00;102281.19;5051038;28;20021;-80
2023/10/08 03:51:46;;;;;;;15.05;6.43;;;;;;;14.17;100.00;102275.91;5060698;28;20063;-79
2023/10/08 03:56:45;;;;;;;12.38;6.85;;;;;;;14.16;100.00;102266.25;5051602;28;20049;-80
2023/10/08 03:59:14;;;;;;;11.65;6.43;;;;;;;14.15;100.00;102266.34;5051235;28;20043;-80
2023/10/08 04:01:43;;;;;;;13.95;6.07;;;;;;;14.12;100.00;102272.72;5066528;28;20028;-80
2023/10/08 04:04:14;;;;;;;14.07;6.70;;;;;;;14.15;100.00;102275.16;5072041;28;20427;-80
2023/10/08 04:06:54;;;;;;;13.75;6.95;;;;;;;14.09;100.00;102278.22;5060858;28;20031;-79
2023/10/08 04:14:20;;;;;;;12.15;6.32;;;;;;;14.10;100.00;102279.91;5071597;28;20048;-79
2023/10/08 04:16:46;;;;;;;13.30;7.00;;;;;;;14.03;100.00;102268.88;5057818;28;20576;-79
2023/10/08 04:19:12;;;;;;;12.57;6.18;;;;;;;14.02;100.00;102283.06;5054821;28;20032;-79
2023/10/08 04:21:42;;;;;;;14.00;6.40;;;;;;;14.00;100.00;102284.06;5069869;28;20044;-80
2023/10/08 04:24:08;;;;;;;13.18;6.38;;;;;;;13.97;100.00;102279.84;5057408;28;20021;-80
2023/10/08 04:26:34;;;;;;;11.27;5.85;;;;;;;14.00;100.00;102290.22;5065010;28;20410;-80
2023/10/08 04:29:02;;;;;;;14.25;6.45;;;;;;;14.00;100.00;102300.81;5045350;28;20025;-80
2023/10/08 04:31:37;;;;;;;14.70;6.15;;;;;;;14.00;100.00;102303.44;5043922;28;20113;-79
2023/10/08 04:34:15;;;;;;;14.02;6.72;;;;;;;13.99;100.00;102299.09;5069221;28;20074;-80
2023/10/08 04:36:53;;;;;;;14.55;6.90;;;;;;;13.98;100.00;102297.41;5071184;28;20025;-80
2023/10/08 04:39:23;;;;;;;12.75;6.55;;;;;;;13.93;100.00;102294.22;5069925;28;20028;-80
2023/10/08 04:41:53;;;;;;;13.27;6.88;;;;;;;13.98;100.00;102304.50;5051892;28;20029;-81
2023/10/08 04:44:21;;;;;;;13.23;6.63;;;;;;;13.93;100.00;102301.31;5066524;28;20021;-79
2023/10/08 04:46:49;;;;;;;13.98;7.05;;;;;;;13.92;100.00;102303.09;5050289;28;20029;-80
2023/10/08 04:49:27;;;;;;;15.38;6.88;;;;;;;13.92;100.00;102304.91;5041942;28;20493;-80
2023/10/08 04:51:57;;;;;;;13.30;6.57;;;;;;;13.85;100.00;102311.53;5058073;28;20082;-80
2023/10/08 04:54:30;;;;;;;13.05;6.93;;;;;;;13.80;100.00;102320.63;5053344;28;20021;-80
2023/10/08 04:57:01;;;;;;;13.15;6.90;;;;;;;13.75;100.00;102320.06;5051795;28;20037;-80
2023/10/08 04:59:32;;;;;;;14.48;7.03;;;;;;;13.74;100.00;102315.72;5049631;28;20385;-80
2023/10/08 05:07:40;;;;;;;12.02;6.72;;;;;;;13.71;100.00;102309.78;5045401;28;20041;-79
2023/10/08 05:12:50;;;;;;;11.35;6.80;;;;;;;13.67;100.00;102330.31;5059106;28;20033;-82
2023/10/08 05:20:29;;;;;;;16.45;7.15;;;;;;;13.63;100.00;102333.25;5052193;28;20039;-80
2023/10/08 05:23:53;;;;;;;13.27;6.88;;;;;;;13.60;100.00;102334.25;5056250;28;20518;-80
2023/10/08 05:28:30;;;;;;;12.38;7.07;;;;;;;13.60;100.00;102334.25;5035174;28;20040;-80
2023/10/08 05:31:21;;;;;;;15.57;7.40;;;;;;;13.62;100.00;102337.69;5050182;28;20040;-80
2023/10/08 05:41:52;;;;;;;11.43;6.30;;;;;;;13.58;100.00;102361.75;5065323;28;20025;-80
2023/10/08 05:49:53;;;;;;;13.85;6.45;;;;;;;13.49;100.00;102371.94;5055118;28;20037;-80
2023/10/08 05:52:25;;;;;;;13.30;6.85;;;;;;;13.47;100.00;102365.91;5063239;28;20071;-81
2023/10/08 05:57:40;;;;;;;14.93;7.20;;;;;;;13.46;100.00;102340.41;5074638;28;20097;-80
2023/10/08 06:13:04;;;;;;;17.30;7.68;;;;;;;13.35;100.00;102307.66;5074346;28;20037;-80
2023/10/08 06:15:49;;;;;;;14.43;7.63;;;;;;;13.32;100.00;102315.78;5074022;28;20025;-80
2023/10/08 06:18:31;;;;;;;14.30;7.35;;;;;;;13.33;100.00;102330.69;5074176;28;20045;-80
2023/10/08 06:21:09;;;;;;;18.38;7.15;;;;;;;13.35;100.00;102323.53;5074331;28;20025;-80
2023/10/08 06:23:36;;;;;;;20.10;8.60;;;;;;;13.36;100.00;102312.00;5074686;28;20076;-80
2023/10/08 06:26:05;;;;;;;14.77;7.93;;;;;;;13.38;100.00;102323.34;5076820;28;20120;-80
2023/10/08 06:28:34;;;;;;;14.50;7.65;;;;;;;13.41;100.00;102334.56;5070940;28;20040;-80
2023/10/08 06:31:03;;;;;;;18.52;7.13;;;;;;;13.41;100.00;102347.78;5089629;28;20023;-79
2023/10/08 06:33:33;;;;;;;13.70;7.10;;;;;;;13.42;100.00;102356.56;5069287;28;20036;-80
2023/10/08 06:36:13;;;;;;;13.18;7.78;;;;;;;13.41;100.00;102360.16;5065625;28;20020;-80
2023/10/08 06:38:50;;;;;;;11.50;7.60;;;;;;;13.47;100.00;102346.56;5067767;28;20700;-80
2023/10/08 06:41:19;;;;;;;15.30;7.70;;;;;;;13.44;100.00;102344.09;5049969;28;20065;-80
2023/10/08 06:44:14;;;;;;;18.98;7.72;;;;;;;13.41;100.00;102350.44;5047706;28;20048;-80
2023/10/08 06:46:39;;;;;;;14.82;7.95;;;;;;;13.45;100.00;102346.66;5038852;28;20025;-80
2023/10/08 06:49:15;;;;;;;14.40;8.23;;;;;;;13.44;100.00;102339.66;5050883;28;20024;-79
2023/10/08 06:51:44;;;;;;;17.13;8.95;;;;;;;13.40;100.00;102345.25;5056039;28;20029;-80
2023/10/08 06:54:13;;;;;;;16.38;8.32;;;;;;;13.41;100.00;102361.00;5044089;28;20048;-79
2023/10/08 06:56:39;;;;;;;14.05;8.13;;;;;;;13.45;100.00;102354.59;5049070;28;20029;-79
2023/10/08 06:59:05;;;;;;;15.90;8.23;;;;;;;13.49;100.00;102360.53;5047401;28;20028;-80
2023/10/08 07:01:38;;;;;;;14.40;8.32;;;;;;;13.50;100.00;102362.22;5054678;28;20079;-81
2023/10/08 07:04:11;;;;;;;13.00;8.05;;;;;;;13.54;100.00;102371.66;5068756;28;20035;-79
2023/10/08 07:06:39;;;;;;;17.70;8.23;;;;;;;13.57;100.00;102376.75;5069721;28;20059;-81
2023/10/08 07:09:06;;;;;;;18.23;8.90;;;;;;;13.57;100.00;102387.34;5052154;28;20029;-81
2023/10/08 07:11:39;;;;;;;17.67;9.13;;;;;;;13.61;100.00;102373.00;5054815;28;20033;-80
2023/10/08 07:14:05;;;;;;;15.15;8.63;;;;;;;13.68;100.00;102376.97;5049337;28;20358;-80
2023/10/08 07:16:31;;;;;;;15.27;8.60;;;;;;;13.72;100.00;102386.41;5049438;28;20025;-79
2023/10/08 07:19:16;;;;;;;13.32;8.50;;;;;;;13.77;100.00;102394.91;5048001;28;20036;-81
2023/10/08 07:21:45;;;;;;;15.77;8.60;;;;;;;13.81;100.00;102387.63;5049382;28;20029;-82
2023/10/08 07:24:21;;;;;;;17.85;9.40;;;;;;;13.91;100.00;102385.22;5048050;28;20036;-82
2023/10/08 07:26:47;;;;;;;14.68;8.52;;;;;;;14.00;100.00;102384.66;5048656;28;20438;-82
2023/10/08 07:29:17;;;;;;;19.38;9.10;;;;;;;14.06;100.00;102390.41;5058244;28;20044;-82
2023/10/08 07:31:48;;;;;;;15.75;9.98;;;;;;;14.10;100.00;102393.72;5063799;28;20392;-82
2023/10/08 07:34:18;;;;;;;18.40;9.55;;;;;;;14.11;100.00;102393.63;5059974;28;20078;-82
2023/10/08 07:36:46;;;;;;;17.95;10.20;;;;;;;14.14;100.00;102387.28;5061773;28;20190;-82
2023/10/08 07:39:23;;;;;;;19.50;9.88;;;;;;;14.25;100.00;102398.00;5070449;28;20035;-82
2023/10/08 07:41:56;;;;;;;15.63;9.02;;;;;;;14.29;100.00;102412.75;5051368;28;20059;-81
2023/10/08 07:44:22;;;;;;;18.63;9.93;;;;;;;14.36;100.00;102407.91;5059155;28;20028;-81
2023/10/08 07:46:50;;;;;;;17.25;10.68;;;;;;;14.45;100.00;102406.50;5054637;28;20032;-82
2023/10/08 07:49:15;;;;;;;19.52;10.70;;;;;;;14.52;100.00;102397.22;5046680;28;20098;-81
2023/10/08 07:51:40;;;;;;;25.70;15.52;;;;;;;14.65;100.00;102398.09;5052298;28;20470;-82
2023/10/08 07:54:09;;;;;;;21.83;12.15;;;;;;;14.77;100.00;102389.31;5056058;28;20040;-81
2023/10/08 07:56:37;;;;;;;23.00;11.13;;;;;;;14.89;100.00;102388.50;5077237;28;20037;-81
2023/10/08 07:59:08;;;;;;;17.55;10.00;;;;;;;14.99;100.00;102392.22;5050751;28;20017;-81
2023/10/08 08:01:34;;;;;;;22.90;11.20;;;;;;;15.15;100.00;102397.31;5052049;28;20017;-81
2023/10/08 08:03:59;;;;;;;20.58;11.02;;;;;;;15.26;100.00;102400.13;5047699;28;20031;-81
2023/10/08 08:06:25;;;;;;;18.40;11.25;;;;;;;15.38;100.00;102409.03;5050970;28;20021;-81
2023/10/08 08:08:51;;;;;;;19.73;11.13;;;;;;;15.45;100.00;102410.28;5050475;28;20095;-81
2023/10/08 08:11:17;;;;;;;18.75;10.63;;;;;;;15.57;100.00;102425.34;5059500;28;20029;-82
2023/10/08 08:13:44;;;;;;;17.40;10.57;;;;;;;15.65;100.00;102433.66;5044710;28;20056;-82
2023/10/08 08:16:18;;;;;;;21.50;10.80;;;;;;;15.71;100.00;102440.34;5051502;28;20029;-82
2023/10/08 08:18:48;;;;;;;17.45;10.60;;;;;;;15.62;100.00;102441.00;5032310;28;20079;-81
2023/10/08 08:21:19;;;;;;;21.45;10.85;;;;;;;15.64;100.00;102437.28;5046454;28;20029;-81
2023/10/08 08:23:47;;;;;;;20.95;11.00;;;;;;;15.71;100.00;102442.16;5031775;28;20068;-81
2023/10/08 08:26:29;;;;;;;18.90;11.60;;;;;;;15.80;100.00;102449.47;5048172;28;20035;-81
2023/10/08 08:29:00;;;;;;;20.08;11.57;;;;;;;15.82;100.00;102459.00;5058681;28;20068;-81
2023/10/08 08:31:26;;;;;;;22.50;11.35;;;;;;;15.90;100.00;102456.66;5053548;28;20110;-81
2023/10/08 08:33:53;;;;;;;23.45;12.13;;;;;;;15.91;100.00;102460.16;5052736;28;20021;-81
2023/10/08 08:36:20;;;;;;;21.48;11.73;;;;;;;15.93;100.00;102468.88;5060228;28;20074;-81
2023/10/08 08:38:47;;;;;;;22.48;11.88;;;;;;;15.91;100.00;102470.78;5059942;28;20480;-81
2023/10/08 08:41:14;;;;;;;20.73;12.15;;;;;;;15.93;100.00;102474.19;5044517;28;20078;-81
2023/10/08 08:43:48;;;;;;;24.55;11.60;;;;;;;15.92;100.00;102488.41;5054501;28;20032;-81
2023/10/08 08:46:14;;;;;;;30.67;13.10;;;;;;;15.83;100.00;102479.28;5054880;28;20029;-81
2023/10/08 08:48:41;;;;;;;33.78;16.60;;;;;;;15.91;100.00;102476.09;5054302;28;20028;-81
2023/10/08 08:51:11;;;;;;;36.28;16.60;;;;;;;15.87;100.00;102475.47;5046456;28;20033;-81
2023/10/08 08:53:39;;;;;;;34.08;15.18;;;;;;;15.82;100.00;102474.09;5047050;28;20374;-81
2023/10/08 08:56:09;;;;;;;34.97;15.43;;;;;;;15.83;100.00;102475.78;5049970;28;20095;-81
2023/10/08 08:58:37;;;;;;;37.13;16.10;;;;;;;15.80;100.00;102466.22;5048406;28;20036;-81
2023/10/08 09:01:05;;;;;;;31.75;14.38;;;;;;;15.82;100.00;102469.63;5047486;28;20021;-81
2023/10/08 09:03:30;;;;;;;30.90;15.70;;;;;;;15.92;100.00;102473.31;5042643;28;20040;-82
2023/10/08 09:05:57;;;;;;;37.50;15.95;;;;;;;16.06;100.00;102477.69;5042651;28;20031;-81
2023/10/08 09:08:24;;;;;;;35.05;15.18;;;;;;;16.11;100.00;102477.34;5047570;28;20074;-82
2023/10/08 09:10:52;;;;;;;32.70;15.27;;;;;;;16.20;100.00;102484.66;5051272;28;20507;-82
2023/10/08 09:13:22;;;;;;;31.55;14.48;;;;;;;16.24;100.00;102481.66;5049773;28;20040;-83
2023/10/08 09:15:49;;;;;;;30.42;13.90;;;;;;;16.37;100.00;102486.09;5056680;28;20493;-83
2023/10/08 09:18:14;;;;;;;25.90;14.20;;;;;;;16.52;100.00;102487.66;5045417;28;20099;-82
2023/10/08 09:20:43;;;;;;;29.77;14.90;;;;;;;16.57;100.00;102490.81;5047798;28;20416;-82
2023/10/08 09:23:21;;;;;;;27.58;14.95;;;;;;;16.75;100.00;102494.81;5047266;28;20036;-86
2023/10/08 09:25:49;;;;;;;32.38;14.70;;;;;;;16.85;100.00;102479.88;5050913;28;20428;-85
2023/10/08 09:28:17;;;;;;;29.25;15.05;;;;;;;16.90;100.00;102483.06;5048918;28;20095;-83
2023/10/08 09:30:44;;;;;;;28.23;15.27;;;;;;;17.06;100.00;102479.22;5051881;28;20032;-83
2023/10/08 09:33:12;;;;;;;29.63;15.57;;;;;;;16.99;100.00;102485.97;5052777;28;20041;-83
2023/10/08 09:35:38;;;;;;;29.40;15.65;;;;;;;17.10;100.00;102488.66;5053653;28;20069;-83
2023/10/08 09:38:08;;;;;;;32.47;15.95;;;;;;;17.16;100.00;102488.22;5051538;28;20428;-83
2023/10/08 09:40:36;;;;;;;32.42;16.30;;;;;;;17.25;100.00;102498.19;5059625;28;20112;-83
2023/10/08 09:43:03;;;;;;;31.70;16.23;;;;;;;17.32;99.37;102487.91;5051485;28;20107;-85
2023/10/08 09:45:30;;;;;;;32.53;17.17;;;;;;;17.33;99.13;102485.13;5058810;28;20024;-83
2023/10/08 09:47:56;;;;;;;36.22;17.13;;;;;;;17.32;100.00;102483.44;5050563;28;20024;-82
2023/10/08 09:50:29;;;;;;;30.83;17.85;;;;;;;17.28;100.00;102484.63;5052694;28;20055;-83
2023/10/08 09:53:07;;;;;;;38.97;18.08;;;;;;;17.28;100.00;102484.63;5046127;28;20104;-82
2023/10/08 09:55:33;;;;;;;39.03;17.60;;;;;;;17.28;100.00;102473.16;5050142;28;20041;-83
2023/10/08 09:57:59;;;;;;;29.42;17.33;;;;;;;17.35;100.00;102467.22;5056686;28;20495;-83
2023/10/08 10:00:33;;;;;;;31.35;17.48;;;;;;;17.43;100.00;102470.16;5049960;28;20025;-82
2023/10/08 10:03:02;;;;;;;28.45;17.67;;;;;;;17.39;99.96;102463.38;5063285;28;20032;-82
2023/10/08 10:05:37;;;;;;;32.97;18.50;;;;;;;17.53;100.00;102455.16;5042900;28;20022;-83
2023/10/08 10:08:09;;;;;;;30.80;17.08;;;;;;;17.80;99.73;102440.69;5034955;28;20037;-83
2023/10/08 10:10:38;;;;;;;;;;;;;;;18.06;100.00;102442.13;5062863;28;20114;-83
2023/10/08 10:13:09;;;;;;;31.25;17.42;;;;;;;18.08;98.25;102455.34;5053214;28;19912;-82
2023/10/08 10:15:39;;;;;;;33.77;17.20;;;;;;;18.19;97.52;102449.97;5063030;28;20060;-83
2023/10/08 10:18:16;;;;;;;31.90;17.00;;;;;;;18.24;96.84;102450.44;5046476;28;20029;-82
2023/10/08 10:20:46;;;;;;;29.08;17.00;;;;;;;18.22;95.67;102452.41;5053837;28;20032;-83
2023/10/08 10:23:36;;;;;;;29.05;16.83;;;;;;;18.33;96.48;102460.34;5040405;28;20033;-83
2023/10/08 10:26:02;;;;;;;28.33;16.52;;;;;;;18.27;95.57;102471.53;5049501;28;20029;-83
2023/10/08 10:28:29;;;;;;;32.67;17.52;;;;;;;18.30;95.84;102473.09;5047357;28;20136;-83
2023/10/08 10:30:55;;;;;;;27.75;17.23;;;;;;;18.26;96.08;102463.66;5059678;28;20042;-83
2023/10/08 10:33:21;;;;;;;30.35;17.33;;;;;;;18.31;95.76;102456.13;5053980;28;20040;-82
2023/10/08 10:35:54;;;;;;;31.25;16.85;;;;;;;18.46;96.17;102457.56;5050286;28;20068;-84
2023/10/08 10:38:20;;;;;;;28.42;18.23;;;;;;;18.60;94.48;102451.94;5066541;28;20073;-84
2023/10/08 10:40:56;;;;;;;27.70;17.15;;;;;;;18.77;94.76;102454.06;5053254;28;20448;-83
2023/10/08 10:43:32;;;;;;;31.35;17.30;;;;;;;18.95;93.37;102458.88;5049676;28;20389;-83
2023/10/08 10:46:00;;;;;;;31.63;18.75;;;;;;;18.93;93.73;102456.31;5065678;28;20372;-84
2023/10/08 10:48:34;;;;;;;37.95;19.08;;;;;;;18.91;94.00;102470.78;5051686;28;20021;-84
2023/10/08 10:53:44;;;;;;;32.00;18.10;;;;;;;18.76;95.91;102462.19;5051907;28;20036;-83
2023/10/08 10:56:18;;;;;;;32.58;17.75;;;;;;;18.60;95.96;102467.94;5062393;28;20045;-83
2023/10/08 10:58:47;;;;;;;40.53;19.60;;;;;;;18.32;97.37;102464.00;5065992;28;20035;-83
2023/10/08 11:01:44;;;;;;;42.80;19.63;;;;;;;18.09;98.70;102468.53;5062633;28;20051;-82
2023/10/08 11:04:05;;;;;;;40.45;19.98;;;;;;;18.06;99.97;102468.78;5059179;28;20029;-84
2023/10/08 11:06:33;;;;;;;37.42;19.88;;;;;;;18.02;100.00;102462.00;5061531;28;20060;-83
2023/10/08 11:08:58;;;;;;;39.05;19.67;;;;;;;18.01;100.00;102465.63;5059457;28;20040;-83
2023/10/08 11:11:27;;;;;;;43.15;20.13;;;;;;;17.90;100.00;102470.94;5060437;28;20029;-82
2023/10/08 11:14:00;;;;;;;39.15;19.33;;;;;;;17.87;100.00;102473.00;5061267;28;20024;-79
2023/10/08 11:16:25;;;;;;;38.88;19.58;;;;;;;17.84;100.00;102471.44;5064738;28;20021;-79
2023/10/08 11:18:53;;;;;;;44.50;19.20;;;;;;;17.82;100.00;102468.03;5063208;28;20039;-80
2023/10/08 11:21:25;;;;;;;42.00;18.67;;;;;;;17.78;100.00;102475.44;5065538;28;20048;-87
2023/10/08 11:24:08;;;;;;;40.08;18.88;;;;;;;17.65;100.00;102473.81;5078851;28;20006;-88
2023/10/08 11:26:54;;;;;;;40.08;18.52;;;;;;;17.56;100.00;102475.34;5071462;28;20047;-86
2023/10/08 11:29:25;;;;;;;44.28;19.25;;;;;;;17.53;100.00;102476.44;5073777;28;20039;-87
2023/10/08 11:31:51;;;;;;;40.17;17.55;;;;;;;17.45;100.00;102473.53;5073832;28;20024;-88
2023/10/08 11:34:23;;;;;;;33.25;17.15;;;;;;;17.53;100.00;102465.78;5066916;28;20049;-87
2023/10/08 11:36:53;;;;;;;36.97;17.55;;;;;;;17.49;100.00;102469.66;5074526;28;20028;-86
2023/10/08 11:39:21;;;;;;;30.80;16.75;;;;;;;17.50;100.00;102462.53;5071038;28;20503;-88
2023/10/08 11:42:03;;;;;;;32.10;17.52;;;;;;;17.52;100.00;102471.25;5051221;28;20064;-88
2023/10/08 11:44:35;;;;;;;30.67;16.75;;;;;;;17.43;100.00;102464.81;5056012;28;20064;-88
2023/10/08 11:47:11;;;;;;;30.13;16.70;;;;;;;17.44;100.00;102461.19;5048265;28;20496;-89
2023/10/08 11:49:46;;;;;;;29.67;17.55;;;;;;;17.35;100.00;102461.91;5052057;28;20017;-88
2023/10/08 11:52:13;;;;;;;26.77;17.10;;;;;;;17.37;100.00;102452.00;5047890;28;20089;-84
2023/10/08 11:54:42;;;;;;;29.40;16.88;;;;;;;17.49;100.00;102459.03;5065124;28;20383;-84
2023/10/08 11:57:11;;;;;;;30.98;17.23;;;;;;;17.61;100.00;102451.91;5031975;28;20108;-84
2023/10/08 11:59:39;;;;;;;32.35;16.77;;;;;;;17.71;100.00;102442.28;5048713;28;20028;-83
2023/10/08 12:02:16;;;;;;;32.40;17.85;;;;;;;17.95;100.00;102444.78;5051027;28;20017;-84
2023/10/08 12:04:45;;;;;;;31.27;16.65;;;;;;;18.12;100.00;102436.31;5048135;28;20030;-83
2023/10/08 12:07:10;;;;;;;28.38;17.08;;;;;;;18.24;100.00;102438.94;5049879;28;20052;-83
2023/10/08 12:09:40;;;;;;;32.45;16.77;;;;;;;18.33;98.91;102427.53;5051236;28;20029;-84
2023/10/08 12:12:09;;;;;;;26.02;16.67;;;;;;;18.34;98.35;102429.22;5044108;28;20033;-84
2023/10/08 12:14:35;;;;;;;24.35;15.70;;;;;;;18.31;98.20;102429.47;5047008;28;20032;-83
2023/10/08 12:17:11;;;;;;;24.38;15.23;;;;;;;18.12;98.30;102436.31;5051088;28;20029;-84
2023/10/08 12:19:36;;;;;;;25.77;15.82;;;;;;;18.08;99.48;102423.38;5050515;28;20044;-84
2023/10/08 12:22:02;;;;;;;26.83;15.77;;;;;;;18.01;99.40;102431.00;5047222;28;20037;-83
2023/10/08 12:24:28;;;;;;;24.77;16.63;;;;;;;17.85;99.89;102422.53;5039490;28;20068;-83
2023/10/08 12:26:55;;;;;;;26.42;16.40;;;;;;;17.80;100.00;102420.22;5047647;28;20021;-83
2023/10/08 12:29:24;;;;;;;24.13;14.60;;;;;;;17.72;100.00;102419.16;5052044;28;20461;-83
2023/10/08 12:31:53;;;;;;;24.38;13.95;;;;;;;17.73;100.00;102423.50;5048572;28;20044;-83